Time;durP1;ratioP1;P1;durP2;ratioP2;P2;SDS_P1;SDS_P2;PMS_P1;PMS_P2;Temp;Humidity;BMP_temperature;BMP_pressure;BME280_temperature;BME280_humidity;BME280_pressure;Samples;Min_cycle;Max_cycle;Signal;HPM_P1;HPM_P2
2022/05/21 00:00:17;;;;;;;14.43;3.78;;;;;;;;;;4953822;28;20538;-69
2022/05/21 00:02:42;;;;;;;14.20;3.78;;;;;;;;;;4955336;28;20046;-68
2022/05/21 00:05:09;;;;;;;7.85;4.45;;;;;;;;;;4946284;28;20027;-69
2022/05/21 00:07:35;;;;;;;10.45;4.18;;;;;;;;;;4947739;28;20074;-68
2022/05/21 00:10:01;;;;;;;11.73;5.20;;;;;;;;;;4955421;28;20529;-68
2022/05/21 00:12:26;;;;;;;12.27;4.18;;;;;;;;;;4946053;28;20070;-69
2022/05/21 00:14:52;;;;;;;11.48;4.70;;;;;;;;;;4953820;28;20038;-69
2022/05/21 00:17:19;;;;;;;13.85;4.65;;;;;;;;;;4950787;28;20035;-68
2022/05/21 00:19:44;;;;;;;11.23;4.78;;;;;;;;;;4949435;28;20492;-68
2022/05/21 00:22:10;;;;;;;8.50;4.45;;;;;;;;;;4935829;28;20029;-68
2022/05/21 00:24:36;;;;;;;9.63;4.93;;;;;;;;;;4953987;28;20662;-68
2022/05/21 00:27:02;;;;;;;12.25;4.53;;;;;;;;;;4954380;28;20050;-67
2022/05/21 00:29:28;;;;;;;10.25;4.10;;;;;;;;;;4957038;28;20883;-68
2022/05/21 00:31:54;;;;;;;14.18;4.88;;;;;;;;;;4957708;28;20039;-68
2022/05/21 00:34:20;;;;;;;10.35;5.38;;;;;;;;;;4955628;28;20043;-68
2022/05/21 00:36:45;;;;;;;8.82;3.90;;;;;;;;;;4955518;28;20039;-68
2022/05/21 00:39:11;;;;;;;7.95;3.97;;;;;;;;;;4954895;28;20484;-68
2022/05/21 00:41:38;;;;;;;9.60;4.30;;;;;;;;;;4953590;28;20042;-67
2022/05/21 00:44:05;;;;;;;14.00;4.88;;;;;;;;;;4952386;28;20118;-67
2022/05/21 00:46:38;;;;;;;9.13;4.53;;;;;;;;;;4952843;28;20068;-67
2022/05/21 00:49:17;;;;;;;6.43;3.85;;;;;;;;;;4954338;28;20035;-68
2022/05/21 00:51:49;;;;;;;8.05;4.43;;;;;;;;;;4957490;28;20085;-67
2022/05/21 00:54:17;;;;;;;8.23;4.38;;;;;;;;;;4962855;28;20549;-68
2022/05/21 00:56:48;;;;;;;9.95;4.80;;;;;;;;;;4946809;28;20042;-68
2022/05/21 01:02:02;;;;;;;8.20;4.35;;;;;;;;;;4946873;28;21370;-67
2022/05/21 01:04:30;;;;;;;11.93;5.00;;;;;;;;;;4933523;28;20057;-68
2022/05/21 01:06:59;;;;;;;15.00;4.32;;;;;;;;;;4943665;28;20137;-68
2022/05/21 01:09:25;;;;;;;14.20;4.50;;;;;;;;;;4943517;28;20043;-67
2022/05/21 01:11:50;;;;;;;10.40;4.50;;;;;;;;;;4942636;28;20058;-67
2022/05/21 01:14:17;;;;;;;9.93;4.82;;;;;;;;;;4946348;28;20031;-68
2022/05/21 01:16:44;;;;;;;11.35;5.15;;;;;;;;;;4940306;28;20043;-66
2022/05/21 01:19:10;;;;;;;7.18;4.00;;;;;;;;;;4949696;28;20480;-70
2022/05/21 01:21:37;;;;;;;7.82;3.90;;;;;;;;;;4953983;28;20086;-67
2022/05/21 01:24:05;;;;;;;7.22;3.63;;;;;;;;;;4943696;28;20034;-68
2022/05/21 01:26:32;;;;;;;8.45;4.00;;;;;;;;;;4948845;28;20053;-69
2022/05/21 01:28:58;;;;;;;11.30;4.40;;;;;;;;;;4951853;28;21020;-68
2022/05/21 01:31:24;;;;;;;8.30;4.82;;;;;;;;;;4946935;28;20042;-67
2022/05/21 01:33:49;;;;;;;8.02;3.63;;;;;;;;;;4943133;28;20125;-68
2022/05/21 01:36:15;;;;;;;8.98;4.18;;;;;;;;;;4950963;28;20129;-68
2022/05/21 01:38:42;;;;;;;7.90;3.85;;;;;;;;;;4953768;28;20055;-68
2022/05/21 01:41:10;;;;;;;6.82;3.70;;;;;;;;;;4942424;28;20035;-67
2022/05/21 01:46:20;;;;;;;8.73;4.10;;;;;;;;;;4947422;28;20039;-68
2022/05/21 01:48:46;;;;;;;9.13;4.00;;;;;;;;;;4949560;28;20051;-68
2022/05/21 01:51:12;;;;;;;15.35;4.68;;;;;;;;;;4942438;28;20055;-69
2022/05/21 01:53:39;;;;;;;14.52;4.75;;;;;;;;;;4943161;28;20027;-68
2022/05/21 01:56:06;;;;;;;14.60;5.40;;;;;;;;;;4942640;28;20451;-67
2022/05/21 01:58:32;;;;;;;10.02;5.45;;;;;;;;;;4942437;28;20503;-69
2022/05/21 02:00:58;;;;;;;14.65;5.28;;;;;;;;;;4945587;28;20043;-68
2022/05/21 02:03:24;;;;;;;13.93;5.38;;;;;;;;;;4942846;28;20043;-70
2022/05/21 02:05:50;;;;;;;10.73;5.30;;;;;;;;;;4943848;28;20043;-69
2022/05/21 02:08:17;;;;;;;12.10;6.00;;;;;;;;;;4948434;28;20039;-68
2022/05/21 02:10:44;;;;;;;9.77;4.40;;;;;;;;;;4957805;28;20507;-68
2022/05/21 02:13:18;;;;;;;13.90;5.75;;;;;;;;;;4943456;28;20054;-67
2022/05/21 02:15:44;;;;;;;9.32;5.38;;;;;;;;;;4959134;28;20043;-67
2022/05/21 02:18:11;;;;;;;10.38;6.13;;;;;;;;;;4965690;28;20030;-68
2022/05/21 02:20:36;;;;;;;9.63;5.20;;;;;;;;;;4956113;28;20049;-68
2022/05/21 02:23:02;;;;;;;13.82;5.60;;;;;;;;;;4965061;28;20038;-67
2022/05/21 02:25:27;;;;;;;15.30;6.15;;;;;;;;;;4939833;28;20057;-67
2022/05/21 02:27:53;;;;;;;12.52;5.47;;;;;;;;;;4963024;28;20035;-67
2022/05/21 02:30:19;;;;;;;10.38;4.85;;;;;;;;;;4953036;28;20046;-68
2022/05/21 02:32:44;;;;;;;12.10;5.57;;;;;;;;;;4954081;28;20043;-67
2022/05/21 02:35:10;;;;;;;10.55;5.45;;;;;;;;;;4946213;28;20031;-67
2022/05/21 02:40:20;;;;;;;6.20;4.35;;;;;;;;;;4945912;28;20099;-68
2022/05/21 02:42:45;;;;;;;8.98;5.15;;;;;;;;;;4957655;28;20598;-68
2022/05/21 02:45:21;;;;;;;7.18;5.05;;;;;;;;;;4961951;28;20050;-68
2022/05/21 02:47:47;;;;;;;7.40;4.57;;;;;;;;;;4954417;28;20551;-67
2022/05/21 02:50:16;;;;;;;7.35;5.25;;;;;;;;;;4949679;28;20081;-67
2022/05/21 02:52:42;;;;;;;4.70;4.07;;;;;;;;;;4945226;28;20039;-67
2022/05/21 02:55:08;;;;;;;8.32;4.15;;;;;;;;;;4948502;28;20081;-67
2022/05/21 02:57:35;;;;;;;10.05;4.40;;;;;;;;;;4950477;28;20030;-68
2022/05/21 03:00:08;;;;;;;7.97;4.55;;;;;;;;;;4946350;28;20032;-68
2022/05/21 03:02:33;;;;;;;7.85;4.32;;;;;;;;;;4953226;28;20042;-67
2022/05/21 03:05:01;;;;;;;5.97;4.50;;;;;;;;;;4948509;28;20035;-66
2022/05/21 03:07:27;;;;;;;6.63;4.65;;;;;;;;;;4936057;28;20094;-67
2022/05/21 03:12:36;;;;;;;10.18;4.47;;;;;;;;;;4944844;28;20452;-68
2022/05/21 03:15:02;;;;;;;8.35;5.20;;;;;;;;;;4944689;28;20031;-68
2022/05/21 03:17:28;;;;;;;8.75;5.20;;;;;;;;;;4944191;28;20050;-67
2022/05/21 03:19:53;;;;;;;9.93;5.40;;;;;;;;;;4951969;28;20035;-68
2022/05/21 03:22:20;;;;;;;9.52;6.38;;;;;;;;;;4944777;28;20037;-68
2022/05/21 03:24:45;;;;;;;8.45;5.57;;;;;;;;;;4945062;28;20404;-69
2022/05/21 03:27:10;;;;;;;7.30;5.03;;;;;;;;;;4944303;28;20039;-67
2022/05/21 03:29:37;;;;;;;11.43;5.40;;;;;;;;;;4945837;28;20491;-69
2022/05/21 03:32:04;;;;;;;6.88;4.65;;;;;;;;;;4955637;28;20037;-70
2022/05/21 03:34:30;;;;;;;7.38;4.63;;;;;;;;;;4964086;28;20034;-69
2022/05/21 03:36:56;;;;;;;9.10;4.95;;;;;;;;;;4950990;28;20420;-68
2022/05/21 03:39:21;;;;;;;18.15;5.20;;;;;;;;;;4950516;28;20499;-68
2022/05/21 03:41:46;;;;;;;11.82;5.22;;;;;;;;;;4944296;28;20148;-68
2022/05/21 03:44:12;;;;;;;9.75;4.93;;;;;;;;;;4953057;28;20089;-70
2022/05/21 03:46:38;;;;;;;9.23;4.82;;;;;;;;;;4949570;28;20051;-68
2022/05/21 03:49:07;;;;;;;6.70;5.35;;;;;;;;;;4951762;28;20071;-69
2022/05/21 03:51:32;;;;;;;7.15;4.72;;;;;;;;;;4944138;28;20083;-68
2022/05/21 03:53:58;;;;;;;10.55;5.22;;;;;;;;;;4944541;28;20073;-68
2022/05/21 03:56:23;;;;;;;9.30;4.82;;;;;;;;;;4950538;28;20039;-71
2022/05/21 03:58:50;;;;;;;10.93;4.95;;;;;;;;;;4950764;28;20130;-71
2022/05/21 04:01:16;;;;;;;11.88;5.22;;;;;;;;;;4959727;28;20177;-69
2022/05/21 04:03:42;;;;;;;5.65;4.43;;;;;;;;;;4946234;28;20043;-69
2022/05/21 04:06:07;;;;;;;13.98;5.10;;;;;;;;;;4951664;28;20097;-67
2022/05/21 04:08:33;;;;;;;9.25;5.13;;;;;;;;;;4944157;28;20045;-70
2022/05/21 04:11:01;;;;;;;6.72;4.53;;;;;;;;;;4954281;28;20042;-71
2022/05/21 04:13:26;;;;;;;6.22;4.78;;;;;;;;;;4958370;28;20042;-69
2022/05/21 04:15:52;;;;;;;7.35;4.47;;;;;;;;;;4953690;28;20105;-68
2022/05/21 04:18:18;;;;;;;4.47;4.07;;;;;;;;;;4957152;28;20093;-68
2022/05/21 04:20:44;;;;;;;9.45;4.40;;;;;;;;;;4958811;28;20521;-68
2022/05/21 04:23:10;;;;;;;5.95;4.07;;;;;;;;;;4958616;28;20043;-68
2022/05/21 04:25:35;;;;;;;8.65;4.50;;;;;;;;;;4961018;28;20046;-69
2022/05/21 04:28:01;;;;;;;5.95;4.18;;;;;;;;;;4959610;28;20122;-68
2022/05/21 04:30:28;;;;;;;5.22;4.43;;;;;;;;;;4956128;28;20047;-68
2022/05/21 04:32:58;;;;;;;7.90;4.03;;;;;;;;;;4955477;28;20031;-68
2022/05/21 04:35:25;;;;;;;6.20;4.40;;;;;;;;;;4955154;28;20051;-68
2022/05/21 04:37:51;;;;;;;7.22;4.25;;;;;;;;;;4955096;28;20078;-68
2022/05/21 04:40:20;;;;;;;6.25;4.38;;;;;;;;;;4955778;28;20023;-68
2022/05/21 04:42:46;;;;;;;6.38;4.38;;;;;;;;;;4947636;28;20046;-71
2022/05/21 04:45:12;;;;;;;5.53;4.10;;;;;;;;;;4951328;28;20042;-68
2022/05/21 04:47:37;;;;;;;10.50;4.07;;;;;;;;;;4954303;28;20030;-69
2022/05/21 04:50:07;;;;;;;6.78;4.03;;;;;;;;;;4957322;28;21321;-69
2022/05/21 04:52:33;;;;;;;10.70;4.00;;;;;;;;;;4949089;28;20049;-71
2022/05/21 04:55:01;;;;;;;6.55;4.00;;;;;;;;;;4951797;28;20506;-69
2022/05/21 04:57:27;;;;;;;8.38;3.92;;;;;;;;;;4951334;28;20641;-70
2022/05/21 04:59:52;;;;;;;5.78;3.30;;;;;;;;;;4950617;28;20074;-69
2022/05/21 05:02:17;;;;;;;6.07;4.10;;;;;;;;;;4951047;28;20126;-70
2022/05/21 05:04:43;;;;;;;8.32;3.50;;;;;;;;;;4952727;28;20054;-70
2022/05/21 05:07:09;;;;;;;7.93;3.38;;;;;;;;;;4957074;28;20117;-70
2022/05/21 05:09:43;;;;;;;5.28;3.35;;;;;;;;;;4951989;28;20459;-70
2022/05/21 05:12:08;;;;;;;5.53;3.20;;;;;;;;;;4948348;28;20592;-70
2022/05/21 05:14:38;;;;;;;9.43;3.30;;;;;;;;;;4949565;28;20813;-70
2022/05/21 05:17:06;;;;;;;3.63;3.10;;;;;;;;;;4949879;28;20039;-70
2022/05/21 05:19:33;;;;;;;4.47;2.97;;;;;;;;;;4952731;28;20037;-70
2022/05/21 05:22:00;;;;;;;7.60;3.35;;;;;;;;;;4949699;28;20035;-70
2022/05/21 05:24:26;;;;;;;6.82;3.28;;;;;;;;;;4949513;28;20450;-69
2022/05/21 05:26:51;;;;;;;4.22;3.28;;;;;;;;;;4947597;28;20595;-70
2022/05/21 05:29:17;;;;;;;4.30;3.58;;;;;;;;;;4947668;28;20516;-70
2022/05/21 05:31:42;;;;;;;3.97;3.20;;;;;;;;;;4947678;28;20448;-70
2022/05/21 05:34:07;;;;;;;5.97;3.15;;;;;;;;;;4949329;28;20039;-71
2022/05/21 05:36:33;;;;;;;7.13;3.60;;;;;;;;;;4949655;28;20436;-70
2022/05/21 05:38:59;;;;;;;4.18;3.20;;;;;;;;;;4947505;28;20597;-71
2022/05/21 05:41:28;;;;;;;6.45;3.65;;;;;;;;;;4949924;28;20046;-70
2022/05/21 05:43:54;;;;;;;6.75;3.53;;;;;;;;;;4946854;28;20035;-70
2022/05/21 05:46:21;;;;;;;4.10;3.33;;;;;;;;;;4945070;28;20031;-72
2022/05/21 05:48:46;;;;;;;7.32;3.50;;;;;;;;;;4951357;28;20035;-72
2022/05/21 05:51:13;;;;;;;4.72;3.08;;;;;;;;;;4954485;28;20039;-72
2022/05/21 05:53:40;;;;;;;3.70;3.30;;;;;;;;;;4953042;28;20027;-71
2022/05/21 05:56:09;;;;;;;3.80;3.45;;;;;;;;;;4951505;28;20035;-73
2022/05/21 06:01:20;;;;;;;6.05;3.22;;;;;;;;;;4950543;28;20472;-73
2022/05/21 06:03:46;;;;;;;4.93;3.50;;;;;;;;;;4955388;28;20516;-72
2022/05/21 06:06:12;;;;;;;3.65;3.08;;;;;;;;;;4954170;28;20031;-73
2022/05/21 06:08:37;;;;;;;4.70;3.38;;;;;;;;;;4961954;28;20049;-71
2022/05/21 06:11:03;;;;;;;8.40;2.70;;;;;;;;;;4956083;28;20035;-72
2022/05/21 06:13:28;;;;;;;2.70;2.47;;;;;;;;;;4954702;28;20134;-73
2022/05/21 06:15:55;;;;;;;3.20;1.98;;;;;;;;;;4955084;28;20874;-71
2022/05/21 06:18:21;;;;;;;3.47;2.45;;;;;;;;;;4950126;28;20053;-73
2022/05/21 06:20:47;;;;;;;3.17;1.90;;;;;;;;;;4952555;28;20149;-71
2022/05/21 06:23:12;;;;;;;3.08;2.35;;;;;;;;;;4956356;28;20545;-71
2022/05/21 06:25:38;;;;;;;5.72;2.38;;;;;;;;;;4952414;28;20503;-72
2022/05/21 06:28:05;;;;;;;5.95;2.28;;;;;;;;;;4944777;28;20090;-72
2022/05/21 06:30:33;;;;;;;6.25;2.20;;;;;;;;;;4947946;28;20054;-71
2022/05/21 06:33:09;;;;;;;4.90;2.13;;;;;;;;;;4950675;28;20070;-72
2022/05/21 06:35:35;;;;;;;4.70;1.92;;;;;;;;;;4963005;28;20050;-73
2022/05/21 06:38:00;;;;;;;3.10;1.83;;;;;;;;;;4942840;28;20045;-71
2022/05/21 06:40:26;;;;;;;2.33;2.10;;;;;;;;;;4945324;28;20975;-71
2022/05/21 06:42:51;;;;;;;4.53;1.70;;;;;;;;;;4943433;28;20050;-71
2022/05/21 06:45:17;;;;;;;3.20;1.70;;;;;;;;;;4949244;28;20043;-71
2022/05/21 06:47:43;;;;;;;3.53;1.70;;;;;;;;;;4951511;28;20059;-71
2022/05/21 06:50:09;;;;;;;4.15;1.60;;;;;;;;;;4952443;28;20400;-72
2022/05/21 06:52:36;;;;;;;2.05;1.55;;;;;;;;;;4951130;28;20761;-71
2022/05/21 06:55:02;;;;;;;3.90;1.60;;;;;;;;;;4952685;28;20131;-71
2022/05/21 06:57:29;;;;;;;4.57;1.80;;;;;;;;;;4953913;28;20074;-71
2022/05/21 06:59:56;;;;;;;2.55;1.70;;;;;;;;;;4951477;28;20114;-70
2022/05/21 07:02:22;;;;;;;2.33;1.65;;;;;;;;;;4949835;28;20034;-71
2022/05/21 07:07:43;;;;;;;2.63;1.55;;;;;;;;;;4948542;28;20082;-71
2022/05/21 07:10:18;;;;;;;4.85;2.05;;;;;;;;;;4945201;28;20043;-71
2022/05/21 07:12:43;;;;;;;3.33;1.73;;;;;;;;;;4945320;28;20035;-70
2022/05/21 07:15:09;;;;;;;5.57;1.60;;;;;;;;;;4946135;28;20089;-70
2022/05/21 07:17:35;;;;;;;2.33;1.60;;;;;;;;;;4952474;28;20089;-71
2022/05/21 07:20:06;;;;;;;2.03;1.50;;;;;;;;;;4953228;28;20500;-70
2022/05/21 07:22:32;;;;;;;2.25;1.73;;;;;;;;;;4945340;28;20129;-71
2022/05/21 07:24:57;;;;;;;3.33;1.73;;;;;;;;;;4948349;28;20126;-71
2022/05/21 07:27:23;;;;;;;5.30;2.65;;;;;;;;;;4947529;28;20042;-71
2022/05/21 07:29:48;;;;;;;2.67;1.63;;;;;;;;;;4952493;28;20090;-72
2022/05/21 07:32:19;;;;;;;4.25;1.80;;;;;;;;;;4951695;28;20648;-70
2022/05/21 07:34:45;;;;;;;2.78;1.60;;;;;;;;;;4952039;28;20047;-70
2022/05/21 07:37:11;;;;;;;2.35;1.80;;;;;;;;;;4949048;28;20042;-70
2022/05/21 07:39:38;;;;;;;6.05;1.60;;;;;;;;;;4950061;28;20039;-71
2022/05/21 07:42:05;;;;;;;7.43;1.73;;;;;;;;;;4950623;28;20094;-71
2022/05/21 07:44:31;;;;;;;3.65;1.63;;;;;;;;;;4944123;28;20046;-71
2022/05/21 07:46:56;;;;;;;1.80;1.58;;;;;;;;;;4949268;28;20035;-71
2022/05/21 07:49:23;;;;;;;3.33;1.77;;;;;;;;;;4945095;28;20042;-70
2022/05/21 07:51:49;;;;;;;2.55;1.65;;;;;;;;;;4945978;28;20062;-71
2022/05/21 07:54:14;;;;;;;3.55;1.63;;;;;;;;;;4945050;28;20031;-71
2022/05/21 07:56:39;;;;;;;2.22;1.48;;;;;;;;;;4946948;28;20910;-71
2022/05/21 07:59:05;;;;;;;3.67;1.75;;;;;;;;;;4944730;28;20394;-71
2022/05/21 08:01:30;;;;;;;4.63;2.03;;;;;;;;;;4953935;28;20049;-71
2022/05/21 08:03:56;;;;;;;6.25;1.38;;;;;;;;;;4945976;28;20043;-71
2022/05/21 08:06:22;;;;;;;2.15;1.25;;;;;;;;;;4949504;28;20039;-71
2022/05/21 08:08:49;;;;;;;1.30;1.20;;;;;;;;;;4947054;28;20662;-71
2022/05/21 08:11:15;;;;;;;1.75;1.23;;;;;;;;;;4943005;28;20062;-71
2022/05/21 08:13:40;;;;;;;2.15;1.10;;;;;;;;;;4950795;28;20142;-71
2022/05/21 08:16:06;;;;;;;2.38;1.27;;;;;;;;;;4950792;28;20062;-71
2022/05/21 08:18:32;;;;;;;3.08;1.10;;;;;;;;;;4944020;28;20778;-71
2022/05/21 08:20:57;;;;;;;1.90;1.45;;;;;;;;;;4943837;28;20043;-71
2022/05/21 08:28:50;;;;;;;4.00;1.40;;;;;;;;;;4944161;28;20187;-71
2022/05/21 08:31:17;;;;;;;1.83;1.02;;;;;;;;;;4946502;28;20138;-71
2022/05/21 08:33:43;;;;;;;3.00;1.30;;;;;;;;;;4947385;28;20161;-71
2022/05/21 08:36:09;;;;;;;2.67;1.20;;;;;;;;;;4947975;28;20073;-71
2022/05/21 08:38:34;;;;;;;2.53;1.20;;;;;;;;;;4947974;28;20473;-71
2022/05/21 08:41:11;;;;;;;1.33;1.20;;;;;;;;;;4943558;28;20042;-71
2022/05/21 08:43:51;;;;;;;1.67;1.20;;;;;;;;;;4956438;28;20129;-71
2022/05/21 08:46:37;;;;;;;3.50;1.50;;;;;;;;;;4951592;28;20484;-71
2022/05/21 08:49:38;;;;;;;3.20;1.40;;;;;;;;;;4943846;28;20031;-71
2022/05/21 08:52:21;;;;;;;3.05;1.27;;;;;;;;;;4930346;28;20485;-71
2022/05/21 08:54:48;;;;;;;1.33;1.23;;;;;;;;;;4928878;28;20097;-71
2022/05/21 08:57:25;;;;;;;2.63;1.38;;;;;;;;;;4951474;28;20039;-71
2022/05/21 08:59:58;;;;;;;1.95;1.20;;;;;;;;;;4943131;28;20039;-71
2022/05/21 09:02:30;;;;;;;9.73;1.55;;;;;;;;;;4947971;28;20122;-71
2022/05/21 09:04:56;;;;;;;1.40;1.23;;;;;;;;;;4942954;28;20043;-71
2022/05/21 09:07:24;;;;;;;8.82;8.15;;;;;;;;;;4946313;28;20035;-71
2022/05/21 09:10:12;;;;;;;3.70;2.58;;;;;;;;;;4945146;28;20126;-71
2022/05/21 09:12:49;;;;;;;5.95;5.47;;;;;;;;;;4950124;28;20031;-71
2022/05/21 09:18:07;;;;;;;;;;;;;;;;;;4942985;28;20500;-71
2022/05/21 09:20:39;;;;;;;1.95;1.30;;;;;;;;;;4940059;28;19961;-72
2022/05/21 09:23:04;;;;;;;1.17;1.02;;;;;;;;;;4942828;28;20142;-71
2022/05/21 09:25:30;;;;;;;1.05;1.05;;;;;;;;;;4945980;28;20541;-70
2022/05/21 09:28:11;;;;;;;1.85;1.25;;;;;;;;;;4943549;28;20039;-70
2022/05/21 09:30:53;;;;;;;3.88;0.93;;;;;;;;;;4955251;28;20039;-70
2022/05/21 09:33:36;;;;;;;3.72;1.15;;;;;;;;;;4940398;28;20047;-70
2022/05/21 09:36:02;;;;;;;2.55;1.00;;;;;;;;;;4942654;28;20042;-70
2022/05/21 09:38:47;;;;;;;0.80;0.80;;;;;;;;;;4951792;28;20042;-69
2022/05/21 09:41:16;;;;;;;1.90;0.98;;;;;;;;;;4945186;28;20035;-69
2022/05/21 09:46:43;;;;;;;2.35;2.15;;;;;;;;;;4947699;28;20039;-70
2022/05/21 09:49:21;;;;;;;5.35;4.82;;;;;;;;;;4942583;28;20035;-70
2022/05/21 09:51:56;;;;;;;1.92;1.52;;;;;;;;;;4941807;28;20040;-71
2022/05/21 09:54:36;;;;;;;6.40;5.90;;;;;;;;;;4941432;28;20120;-70
2022/05/21 09:57:01;;;;;;;3.53;3.22;;;;;;;;;;4942687;28;20051;-70
2022/05/21 09:59:29;;;;;;;3.28;1.27;;;;;;;;;;4942108;28;20082;-70
2022/05/21 10:02:01;;;;;;;1.95;1.13;;;;;;;;;;4941973;28;20967;-70
2022/05/21 10:04:43;;;;;;;3.13;1.25;;;;;;;;;;4942681;28;20046;-70
2022/05/21 10:13:14;;;;;;;6.20;5.80;;;;;;;;;;4945027;28;20046;-70
2022/05/21 10:15:49;;;;;;;4.80;2.72;;;;;;;;;;4948545;28;20034;-70
2022/05/21 10:18:33;;;;;;;4.13;3.33;;;;;;;;;;4948383;28;20038;-70
2022/05/21 10:21:09;;;;;;;12.70;9.20;;;;;;;;;;4942509;28;20539;-70
2022/05/21 10:23:48;;;;;;;63.25;51.47;;;;;;;;;;4945606;28;20090;-70
2022/05/21 10:26:35;;;;;;;61.65;51.97;;;;;;;;;;4954113;28;20035;-69
2022/05/21 10:29:07;;;;;;;15.65;9.98;;;;;;;;;;4957843;28;20039;-69
2022/05/21 10:32:02;;;;;;;13.68;11.63;;;;;;;;;;4955423;28;20038;-70
2022/05/21 10:34:45;;;;;;;4.28;1.80;;;;;;;;;;4954440;28;20039;-69
2022/05/21 10:37:52;;;;;;;1.25;1.08;;;;;;;;;;4957745;28;20039;-69
2022/05/21 10:40:25;;;;;;;2.17;0.60;;;;;;;;;;4957697;28;20042;-69
2022/05/21 10:43:08;;;;;;;0.80;0.80;;;;;;;;;;4957576;28;20057;-70
2022/05/21 10:45:41;;;;;;;8.18;1.88;;;;;;;;;;4959344;28;20043;-69
2022/05/21 10:48:31;;;;;;;0.77;0.77;;;;;;;;;;4957511;28;20065;-69
2022/05/21 10:51:39;;;;;;;2.00;0.98;;;;;;;;;;4957745;28;20035;-69
2022/05/21 10:54:26;;;;;;;1.15;0.90;;;;;;;;;;4944933;28;20039;-70
2022/05/21 10:57:10;;;;;;;0.63;0.63;;;;;;;;;;4958801;28;20027;-70
2022/05/21 11:00:07;;;;;;;0.85;0.60;;;;;;;;;;4959948;28;20043;-69
2022/05/21 11:02:41;;;;;;;2.05;0.70;;;;;;;;;;4955916;28;20039;-69
2022/05/21 11:05:09;;;;;;;;;;;;;;;;;;4952345;28;20039;-68
2022/05/21 11:07:51;;;;;;;3.13;0.95;;;;;;;;;;4951818;28;19914;-68
2022/05/21 11:10:25;;;;;;;2.42;0.60;;;;;;;;;;4951619;28;20035;-68
2022/05/21 11:13:31;;;;;;;1.50;0.75;;;;;;;;;;4946728;28;20047;-69
2022/05/21 11:16:13;;;;;;;1.75;1.60;;;;;;;;;;4872273;29;20057;-68
2022/05/21 11:18:48;;;;;;;2.65;1.25;;;;;;;;;;4877973;29;20131;-68
2022/05/21 11:21:26;;;;;;;2.45;0.70;;;;;;;;;;4923338;28;20043;-68
2022/05/21 11:24:17;;;;;;;0.73;0.73;;;;;;;;;;4952773;28;20047;-69
2022/05/21 11:26:47;;;;;;;21.02;13.82;;;;;;;;;;4954558;28;20048;-69
2022/05/21 11:29:33;;;;;;;1.15;0.60;;;;;;;;;;4955248;28;20031;-70
2022/05/21 11:37:41;;;;;;;2.67;0.82;;;;;;;;;;4950311;28;20042;-72
2022/05/21 11:40:08;;;;;;;0.73;0.73;;;;;;;;;;4951797;28;20488;-69
2022/05/21 11:42:35;;;;;;;1.92;0.70;;;;;;;;;;4954592;28;20038;-70
2022/05/21 11:45:09;;;;;;;3.45;0.80;;;;;;;;;;4954074;28;20118;-69
2022/05/21 11:48:10;;;;;;;14.50;8.88;;;;;;;;;;4954337;28;20042;-69
2022/05/21 11:50:35;;;;;;;0.85;0.85;;;;;;;;;;4954666;28;20599;-68
2022/05/21 11:53:05;;;;;;;1.58;0.77;;;;;;;;;;4949813;28;20039;-69
2022/05/21 11:55:58;;;;;;;1.17;0.52;;;;;;;;;;4949718;28;20629;-69
2022/05/21 11:58:58;;;;;;;0.85;0.85;;;;;;;;;;4946548;28;20050;-69
2022/05/21 12:01:39;;;;;;;1.30;0.70;;;;;;;;;;4947816;28;20023;-69
2022/05/21 12:04:06;;;;;;;0.60;0.60;;;;;;;;;;4949202;28;20035;-69
2022/05/21 12:06:39;;;;;;;1.90;0.70;;;;;;;;;;4943571;28;20294;-69
2022/05/21 12:09:27;;;;;;;8.88;4.97;;;;;;;;;;4956155;28;20045;-69
2022/05/21 12:12:19;;;;;;;1.45;0.63;;;;;;;;;;4945926;28;20071;-69
2022/05/21 12:15:08;;;;;;;0.70;0.50;;;;;;;;;;4943523;28;20043;-69
2022/05/21 12:17:37;;;;;;;0.88;0.52;;;;;;;;;;4951558;28;20030;-69
2022/05/21 12:20:06;;;;;;;0.50;0.50;;;;;;;;;;4955583;28;20027;-69
2022/05/21 12:22:39;;;;;;;2.85;0.55;;;;;;;;;;4950319;28;20126;-69
2022/05/21 12:25:09;;;;;;;7.57;0.85;;;;;;;;;;4950017;28;20035;-69
2022/05/21 12:27:49;;;;;;;1.45;0.57;;;;;;;;;;4954353;28;20046;-69
2022/05/21 12:30:27;;;;;;;2.47;0.75;;;;;;;;;;4950588;28;20124;-69
2022/05/21 12:32:53;;;;;;;3.30;0.57;;;;;;;;;;4949175;28;20042;-70
2022/05/21 12:35:27;;;;;;;2.97;0.60;;;;;;;;;;4949852;28;20027;-68
2022/05/21 12:38:09;;;;;;;1.52;0.43;;;;;;;;;;4955481;28;20046;-68
2022/05/21 12:40:44;;;;;;;0.40;0.40;;;;;;;;;;4953558;28;20097;-68
2022/05/21 12:43:12;;;;;;;0.90;0.55;;;;;;;;;;4954252;28;20031;-68
2022/05/21 12:45:49;;;;;;;0.47;0.47;;;;;;;;;;4953577;28;20162;-68
2022/05/21 12:48:23;;;;;;;2.58;0.60;;;;;;;;;;4956258;28;20039;-67
2022/05/21 12:51:01;;;;;;;1.38;0.50;;;;;;;;;;4946122;28;20122;-68
2022/05/21 12:53:29;;;;;;;0.85;0.70;;;;;;;;;;4951562;28;20039;-70
2022/05/21 12:56:27;;;;;;;1.10;0.80;;;;;;;;;;4944463;28;20107;-69
2022/05/21 12:59:15;;;;;;;5.53;0.70;;;;;;;;;;4949292;28;20043;-70
2022/05/21 13:01:51;;;;;;;1.55;0.65;;;;;;;;;;4949406;28;20039;-72
2022/05/21 13:04:38;;;;;;;1.60;0.63;;;;;;;;;;4949741;28;20118;-69
2022/05/21 13:07:11;;;;;;;0.50;0.50;;;;;;;;;;4948163;28;20042;-68
2022/05/21 13:09:48;;;;;;;0.80;0.60;;;;;;;;;;4948378;28;20171;-70
2022/05/21 13:12:15;;;;;;;1.23;0.50;;;;;;;;;;4945614;28;20031;-68
2022/05/21 13:14:42;;;;;;;1.05;0.50;;;;;;;;;;4908782;28;20699;-69
2022/05/21 13:17:24;;;;;;;1.90;0.70;;;;;;;;;;4949663;28;20069;-69
2022/05/21 13:19:57;;;;;;;1.00;0.45;;;;;;;;;;4947076;28;20110;-68
2022/05/21 13:22:52;;;;;;;0.88;0.50;;;;;;;;;;4941447;28;20094;-69
2022/05/21 13:25:18;;;;;;;3.00;0.50;;;;;;;;;;4951183;28;20136;-68
2022/05/21 13:27:48;;;;;;;1.15;0.70;;;;;;;;;;4943320;28;20399;-70
2022/05/21 13:30:21;;;;;;;0.98;0.50;;;;;;;;;;4945406;28;20039;-69
2022/05/21 13:32:55;;;;;;;1.65;0.70;;;;;;;;;;4952337;28;20526;-70
2022/05/21 13:35:31;;;;;;;2.40;0.60;;;;;;;;;;4942803;28;20028;-70
2022/05/21 13:37:56;;;;;;;0.82;0.60;;;;;;;;;;4942822;28;20067;-70
2022/05/21 13:40:27;;;;;;;3.13;0.50;;;;;;;;;;4939830;28;20114;-67
2022/05/21 13:43:09;;;;;;;0.40;0.40;;;;;;;;;;4947945;28;20035;-68
2022/05/21 13:45:37;;;;;;;1.05;0.57;;;;;;;;;;4943241;28;20039;-69
2022/05/21 13:48:12;;;;;;;4.13;0.65;;;;;;;;;;4942094;28;20039;-68
2022/05/21 13:50:38;;;;;;;1.02;0.60;;;;;;;;;;4944041;28;20043;-68
2022/05/21 13:53:05;;;;;;;0.40;0.40;;;;;;;;;;4950215;28;20495;-68
2022/05/21 13:55:32;;;;;;;2.30;0.40;;;;;;;;;;4948839;28;20070;-68
2022/05/21 13:58:22;;;;;;;1.67;0.50;;;;;;;;;;4925007;29;20051;-69
2022/05/21 14:00:47;;;;;;;0.50;0.50;;;;;;;;;;4946397;28;20078;-69
2022/05/21 14:03:45;;;;;;;2.67;0.50;;;;;;;;;;4939775;28;20135;-69
2022/05/21 14:06:23;;;;;;;0.63;0.50;;;;;;;;;;4950057;28;20454;-69
2022/05/21 14:08:59;;;;;;;1.13;0.57;;;;;;;;;;4949492;28;20043;-69
2022/05/21 14:11:28;;;;;;;3.75;0.60;;;;;;;;;;4951990;28;20045;-69
2022/05/21 14:14:06;;;;;;;0.70;0.50;;;;;;;;;;4947262;28;20407;-69
2022/05/21 14:16:34;;;;;;;1.50;0.57;;;;;;;;;;4950697;28;20109;-69
2022/05/21 14:19:18;;;;;;;0.80;0.60;;;;;;;;;;4952626;28;20034;-69
2022/05/21 14:22:03;;;;;;;2.28;0.45;;;;;;;;;;4953037;28;20035;-69
2022/05/21 14:25:13;;;;;;;1.20;0.60;;;;;;;;;;4956913;28;20059;-69
2022/05/21 14:28:07;;;;;;;4.25;0.80;;;;;;;;;;4949815;28;20046;-69
2022/05/21 14:30:42;;;;;;;1.13;0.68;;;;;;;;;;4949152;28;20094;-68
2022/05/21 14:33:27;;;;;;;2.22;0.82;;;;;;;;;;4946292;28;20039;-68
2022/05/21 14:36:15;;;;;;;2.08;0.60;;;;;;;;;;4948449;28;20070;-69
2022/05/21 14:38:40;;;;;;;0.85;0.70;;;;;;;;;;4952118;28;20086;-69
2022/05/21 14:41:05;;;;;;;0.50;0.50;;;;;;;;;;4950745;28;20118;-69
2022/05/21 14:43:36;;;;;;;0.70;0.60;;;;;;;;;;4944212;28;20047;-69
2022/05/21 14:46:03;;;;;;;1.57;0.60;;;;;;;;;;4948105;28;20039;-69
2022/05/21 14:48:28;;;;;;;2.45;0.60;;;;;;;;;;4950178;28;20034;-69
2022/05/21 14:53:48;;;;;;;3.08;0.80;;;;;;;;;;4947360;28;20042;-69
2022/05/21 14:56:25;;;;;;;1.45;0.70;;;;;;;;;;4945229;28;20125;-68
2022/05/21 14:59:05;;;;;;;2.40;0.70;;;;;;;;;;4948346;28;20042;-69
2022/05/21 15:01:37;;;;;;;0.90;0.60;;;;;;;;;;4955613;28;20162;-68
2022/05/21 15:04:04;;;;;;;0.30;0.30;;;;;;;;;;4952759;28;21168;-68
2022/05/21 15:06:34;;;;;;;0.80;0.60;;;;;;;;;;4958380;28;20074;-68
2022/05/21 15:09:02;;;;;;;2.92;0.55;;;;;;;;;;4956111;28;20031;-69
2022/05/21 15:11:28;;;;;;;1.40;0.38;;;;;;;;;;4955182;28;20742;-68
2022/05/21 15:13:54;;;;;;;1.85;0.50;;;;;;;;;;4957549;28;20118;-68
2022/05/21 15:16:20;;;;;;;0.50;0.50;;;;;;;;;;4956601;28;20023;-68
2022/05/21 15:18:46;;;;;;;1.60;0.55;;;;;;;;;;4955324;28;20043;-68
2022/05/21 15:21:21;;;;;;;0.43;0.40;;;;;;;;;;4952992;28;20045;-68
2022/05/21 15:23:47;;;;;;;1.38;0.80;;;;;;;;;;4955113;28;20043;-68
2022/05/21 15:26:13;;;;;;;2.40;1.80;;;;;;;;;;4954018;28;20113;-68
2022/05/21 15:28:39;;;;;;;1.30;0.60;;;;;;;;;;4957074;28;20742;-68
2022/05/21 15:31:08;;;;;;;1.13;0.73;;;;;;;;;;4952555;28;20061;-68
2022/05/21 15:33:33;;;;;;;2.40;0.50;;;;;;;;;;4952527;28;20047;-69
2022/05/21 15:35:59;;;;;;;0.60;0.60;;;;;;;;;;4959283;28;20101;-68
2022/05/21 15:38:25;;;;;;;1.98;0.57;;;;;;;;;;4953840;28;20047;-68
2022/05/21 15:40:53;;;;;;;2.08;0.98;;;;;;;;;;4956233;28;20046;-68
2022/05/21 15:43:19;;;;;;;1.83;0.57;;;;;;;;;;4951113;28;20082;-68